Prochaines Courses

Connexion

Run & Bike

ODYSSE RUN & BIKE du 02/06/13 (Reelle 6,6)
Rang Dossard Nom Prénom Temps Cat Rang Cat Ecart Ecart Cat Club Vitesse Km/h Temps au Km
1 225 BOULOGNE Jérémy CUCHEVAL Mathias 00:23:30 MASCULINS 1 00:00:00 00:00:00 LES FLAHUTES 16,851 03:34
2 287 FLINOIS Anthony PCZYBYLSKI Guillaume 00:24:15 MASCULINS 2 00:00:45 00:00:45 PEDAL DAMN IT 16,330 03:40
3 295 MASSON Mickael CUCHEVAL Samuel 00:24:21 MASCULINS 3 00:00:51 00:00:51 MARCKATHLON LYS CALAIS TRI 16,263 03:41
4 214 DANEL Marc André QUEVAL Jean-Jacques 00:24:46 VETERANS 1 00:01:16 00:00:00 MARCKATHLON TEAM 15,989 03:45
5 275 DINIELLE Arnaud LECARPENTIER Fabrice 00:24:46 MASCULINS 4 00:01:16 00:01:16 TEAM MANOSPORT 1 15,989 03:45
6 279 LOEUILLIEUX Stéphane LACROIX Olivier 00:24:48 MASCULINS 5 00:01:18 00:01:18 LE DRAPEAU D OPALE TRAIL NATURE 15,968 03:45
7 213 BOUCLET Bastien HURTEL David 00:25:03 MASCULINS 6 00:01:33 00:01:33 JARDINERIE TULIPE 15,808 03:48
8 233 HERTAULT Ludovic BIGNOT Christophe 00:25:23 VETERANS 2 00:01:53 00:00:37 IMS RETAIL AGILITY 15,601 03:51
9 201 CARRE Pauline QUEVAL Charles Hubert 00:25:35 MIXTES 1 00:02:05 00:00:00 LILLE 2 LA TENTATION 15,479 03:53
10 95 DUCROCQ Antoine MILLE Sébastien 00:25:47 MASCULINS 7 00:02:17 00:02:17 LES BOFS 15,359 03:54
11 226 MILLE Laurent MATRINGHEN Tony 00:26:01 MASCULINS 8 00:02:31 00:02:31 LES JAMBES EN MOUSSE 15,221 03:57
12 274 LEFEBVRE Julien BREQUEVILLE Samuel 00:26:07 MASCULINS 9 00:02:37 00:02:37 TOUQUET OPALE ATHETISME 15,163 03:57
13 278 THIBAULT Olivier LECLERCQ Richard 00:26:11 MASCULINS 10 00:02:41 00:02:41 LES BARONS BERCKOIS 15,124 03:58
14 286 LELEU Laëtitia GOURDAIN Eric 00:26:16 MIXTES 2 00:02:46 00:00:41 LES CRAPULES 15,076 03:59
15 257 LEBLANC Maxime CLETY François 00:26:26 MASCULINS 11 00:02:56 00:02:56 MADE IN RAID 14,981 04:00
16 202 MATHIEU Damien BIZ Delphine 00:26:48 MIXTES 3 00:03:18 00:01:13 GSO DUNKERQUE RAID AVENTURE 14,776 04:04
17 252 BOURGUIGNON Vincent SUEUR Dominique 00:26:57 MASCULINS 12 00:03:27 00:03:27 TEAM TRAIL 1 14,694 04:05
18 250 LECOCQ Chriss LAPOTRE Médéric 00:27:04 MASCULINS 13 00:03:34 00:03:34 LES BRAS CASSES 14,631 04:06
19 221 LECOUTRE Thierry RIFFARD Jean 00:27:10 VETERANS 3 00:03:40 00:02:24 OTN TEAM VETERANS 14,577 04:07
20 200 LANDRECIES Loic CROGIEZ José 00:27:24 MASCULINS 14 00:03:54 00:03:54 VELOLAND BOULOGNE 14,453 04:09
21 288 DEGARDIN Laurent PARENT Blaise 00:27:25 MASCULINS 15 00:03:55 00:03:55 TOP GUN 14,444 04:09
22 289 DELAY Bastien SAISON Antoine 00:27:26 JEUNES 1 00:03:56 00:00:00 STAR FIRE 14,435 04:09
23 208 VANDAELE Jérome MERLIN Nicolas 00:27:26 MASCULINS 16 00:03:56 00:03:56 LES BIGORNOS 14,435 04:09
24 247 CAPDEVILLA Catherine LEROUX Guillaume 00:27:52 MIXTES 4 00:04:22 00:02:17 TEAM TRAIL 62 MIXTES 14,211 04:13
25 267 BIERNACKI Alexandre CLEMENT Damien 00:27:53 MASCULINS 17 00:04:23 00:04:23 TRAITHLON CLUB BOULONNAIS 14,202 04:13
26 97 GUYOT Fabien JOURDAIN Charles 00:28:07 MASCULINS 18 00:04:37 00:04:37 8 MILE 14,084 04:16
27 262 TETARD Christophe HODIQUE Hervé 00:28:25 VETERANS 4 00:04:55 00:03:39 LES POMPIERS DE DEFF 13,935 04:18
28 219 AIGOUY Damien CUCHEVAL Florence 00:28:31 MIXTES 5 00:05:01 00:02:56 LYS CALAIS TRIATHLON 13,887 04:19
29 235 VANDJOUR Philippe VANDJOUR Laurence 00:28:40 MIXTES 6 00:05:10 00:03:05 BISONS FUTES 13,814 04:21
30 259 LEFEBVRE Sébastien ESTAMPES François 00:28:47 MASCULINS 19 00:05:17 00:05:17 TEAM RAIDEUR 13,758 04:22
31 210 DUHAMEL Maxime CAFFIER Morgan 00:28:54 MASCULINS 20 00:05:24 00:05:24 LES FREE RAIDERS 13,702 04:23
32 245 BLOND Céline BLOND Grégory 00:28:54 MIXTES 7 00:05:24 00:03:19 JULBO 1 13,702 04:23
33 217 BEAUSSART Sébastien FLOURY Grégory 00:28:56 MASCULINS 21 00:05:26 00:05:26 TWIX 13,687 04:23
34 204 FRANCOIS Gilbert ANDRIEUX Dimitri 00:28:57 MASCULINS 22 00:05:27 00:05:27 LYS CALAIS TRIATHLON PÈRE ET FILS 13,679 04:23
35 268 LESAGE Marc HURTH Denis 00:29:13 MASCULINS 23 00:05:43 00:05:43 UNSA POLICE 13,554 04:26
36 220 COEUGNET Manuel GAVEL Grégory 00:29:17 MASCULINS 24 00:05:47 00:05:47 SPORT EVASION JEUNES 13,523 04:26
37 273 LOEUILLIEUX Pierre LOEUILLIEUX Franck 00:29:32 MASCULINS 25 00:06:02 00:06:02 BIG BROTHERS 13,409 04:28
38 280 DIEUSET Anthony NOURTIER Nicolas 00:29:34 MASCULINS 26 00:06:04 00:06:04 OPALE TRAIL NATURE 13,393 04:29
39 251 DEFACHELLE Geoffrey JACQUEMOD Mickael 00:29:43 MASCULINS 27 00:06:13 00:06:13 TEAM MANOSPORT 13,326 04:30
40 234 MARTIN Jean-Michel MARTIN Andy 00:29:44 MASCULINS 28 00:06:14 00:06:14 LES MARTINUS 13,318 04:30
41 277 SCOBRY Anthony DEQUEKER Vincent 00:29:45 MASCULINS 29 00:06:15 00:06:15 CANYON'S BROTHERS 13,311 04:30
42 300 BELLEMBOIS Stéphane DELCLOY Olivier 00:29:46 VETERANS 5 00:06:16 00:05:00 SAV 2 13,303 04:31
43 229 WARGNIER Philippe DUBOIS Tony 00:29:51 VETERANS 6 00:06:21 00:05:05 LES INCREVABLES DU LYS 13,266 04:31
44 203 SUEUR Fabrice CARPENTIER Thierry 00:29:59 VETERANS 7 00:06:29 00:05:13 SPORT EVASION DES 2 CAPS 13,207 04:33
45 98 SPILLIAERT Florence PRUVOST Yannick 00:30:04 MIXTES 8 00:06:34 00:04:29 DANS LE SPEED 13,171 04:33
46 299 LEGRAND Jean Serge VANDERZYPPE Ludovic 00:30:05 VETERANS 8 00:06:35 00:05:19 SAV 13,163 04:33
47 255 BIENIOSZEK Fabrice GLASSIER François 00:30:12 VETERANS 9 00:06:42 00:05:26 MEME PAS PEUR 13,113 04:35
48 206 GODART Valérie DEPLECHIN David 00:30:15 MIXTES 9 00:06:45 00:04:40 TURTLE TEAM 13,091 04:35
49 242 BLANPAIN Jean-Pierre COMBET Philippe 00:30:18 VETERANS 10 00:06:48 00:05:32 LES GRAVELINOIS 13,069 04:35
50 270 LEPETZ Olivier WAREMBOURG Philippe 00:30:23 MASCULINS 30 00:06:53 00:06:53 TEAM AIRSPIRE 13,033 04:36
51 283 COUTURE Sandra HALLUIN Jérémie 00:30:29 MIXTES 10 00:06:59 00:04:54 XTREM RIDERS 12,991 04:37
52 223 TELLIER Romain DEBETTE Florian 00:30:31 MASCULINS 31 00:07:01 00:07:01 LES FANTASTIQUES 12,977 04:37
53 244 ROSEY Christophe DEWEZ Julien 00:30:38 MASCULINS 32 00:07:08 00:07:08 LES MOUSQUETAIRES 12,927 04:38
54 284 PORTEMONT Romain PORTEMONT Guillaume 00:30:43 MASCULINS 33 00:07:13 00:07:13 LES PETITS MINOUS 12,892 04:39
55 254 SCIGACZ Jérome THUILLIER Patrick 00:30:48 MASCULINS 34 00:07:18 00:07:18 COURIR A LA FOLIE 1 12,857 04:40
56 241 RADENNE Christophe KRONUS Joël 00:30:51 VETERANS 11 00:07:21 00:06:05 LES BOYS 12,836 04:40
57 239 MAQUINGHEN Christophe DEFOSSE Alexandre 00:30:54 MASCULINS 35 00:07:24 00:07:24 CHOUCHOU ET LOULOU 12,816 04:41
58 205 DELITTE Jérémy LAMOUR Maxime 00:30:59 MASCULINS 36 00:07:29 00:07:29 LES ZLATANNEURS 12,781 04:42
59 232 BALY Patrick BALY Adrien 00:31:04 MASCULINS 37 00:07:34 00:07:34 TEAM BALY 12,747 04:42
60 249 CHOQUET Sébastien FALEMPIN James 00:31:10 MASCULINS 38 00:07:40 00:07:40 JAM ET SEB 12,706 04:43
61 296 LHOMEL Antoine DEBAS Gérard 00:31:19 MASCULINS 39 00:07:49 00:07:49 FOR EVER 12,645 04:45
62 258 VERMOOTE Frédéric VERMOOTE Christèle 00:31:25 MIXTES 11 00:07:55 00:05:50 OPALE SPORT SANTE 12,605 04:46
63 224 LEVEL Fabien LEVEL Lina 00:31:26 MIXTES 12 00:07:56 00:05:51 LES GIVRES DU DRAPEAU 12,598 04:46
64 298 DUCANDAS Franck DUMONT Emmanuel 00:31:26 MASCULINS 40 00:07:56 00:07:56 LES SKATEURS 12,598 04:46
65 293 LEBEC Mickael JOLLANT Maxime 00:31:45 MASCULINS 41 00:08:15 00:08:15 TUTY FRUTY 12,472 04:49
66 96 LECOINTE Nicolas MANNESSIEZ Fabien 00:31:48 MASCULINS 42 00:08:18 00:08:18 LES RAMEURS 12,453 04:49
67 237 DEBRUXELLES Sébastien SAISON Stéphane 00:31:50 MASCULINS 43 00:08:20 00:08:20 LES BOFS 12,440 04:49
68 218 GAVOIS Cyril MONTIGNY Dimitri 00:31:52 MASCULINS 44 00:08:22 00:08:22 SPORT EVASION DES 2 CAPS LES GAMINS 12,427 04:50
69 209 LEVEL Eddy DUFOUR Emmanuel 00:31:55 MASCULINS 45 00:08:25 00:08:25 VAS Y PEPERE 12,407 04:50
70 291 LOEUILLEUX Bertrand VASSEUR Matthieu 00:32:32 MASCULINS 46 00:09:02 00:09:02 LES RETARDATAIRES 12,172 04:56
71 272 CHEMELLO Stéphane MACHION Thibault 00:32:42 MASCULINS 47 00:09:12 00:09:12 LES VEDETTES 12,110 04:57
72 207 KAHN Julie KAMINSKI Olivia 00:32:45 FEMININES 1 00:09:15 00:00:00 LES STELLIENNES 12,092 04:58
73 243 REYMBAUT Jean-Pierre BAILLIEUL Jérémy 00:32:48 MASCULINS 48 00:09:18 00:09:18 ARSOUILLE-BRILOU 12,073 04:58
74 290 DELAY Mickael DELAY Caroline 00:32:52 MIXTES 13 00:09:22 00:07:17 UN DUO D'ENFER 12,049 04:59
75 212 LELEU Thomas GIRARD Adrien 00:32:58 MASCULINS 49 00:09:28 00:09:28 LES MAZMOKETS 12,012 05:00
76 264 DELATTRE Guillaume RENARD Julien 00:33:04 MASCULINS 50 00:09:34 00:09:34 LES BEAUFS 11,976 05:01
77 282 BLAEUCET Ludovic PRUVOST Nicolas 00:33:07 MASCULINS 51 00:09:37 00:09:37 GARMIN BROTHERS 11,958 05:01
78 222 ZAJAC Christel CLETON Eric 00:33:08 MIXTES 14 00:09:38 00:07:33 LES BUDDIES 11,952 05:01
79 238 BOUVILLE Mélanie GUILBERT Aurélie 00:33:18 FEMININES 2 00:09:48 00:00:33 LES BACQUETTES 11,892 05:03
80 276 BAREZ Cédric BAREZ Delphine 00:33:22 MIXTES 15 00:09:52 00:07:47 DUNKERQUE RAID AVENTURE B 11,868 05:03
81 297 POURRE Fabienne MASSON Annick 00:33:34 FEMININES 3 00:10:04 00:00:49 LES FILLES DU LYS 11,797 05:05
82 231 BIZET Franck RUIZ Joseph 00:33:42 VETERANS 12 00:10:12 00:08:56 LES GRIZZLYS 11,751 05:06
83 266 THOMAS Caroline CHARLON Anne 00:33:46 FEMININES 4 00:10:16 00:01:01 LES DUNKERQUOISES 11,728 05:07
84 228 LEJOSNE Luc DENGLOS Ludovic 00:33:47 VETERANS 13 00:10:17 00:09:01 TARFIA BOYS 11,722 05:07
85 263 HOLUIGUE Frédéric PIONTEK Fabrice 00:34:03 MASCULINS 52 00:10:33 00:10:33 LES COPAINS 11,630 05:10
86 285 LEBRUN Sébastien VASSEUR Jean-Loup 00:34:09 MASCULINS 53 00:10:39 00:10:39 LES PISSE 4 GOUTTES 11,596 05:10
87 236 LEBAS Eric MACQUET Olivier 00:34:30 VETERANS 14 00:11:00 00:09:44 LES CALMOS 11,478 05:14
88 261 KUSCHNICK Fabrice LAIDEZ Jonathan 00:34:39 MASCULINS 54 00:11:09 00:11:09 LES TIGRES DESVROIS 11,429 05:15
89 271 DAGNEAUX Armel BODART Jean François 00:35:25 MASCULINS 55 00:11:55 00:11:55 THE FALL GUY 11,181 05:22
90 240 CARDON Florian DOCQUOIS Frédéric 00:35:49 MASCULINS 56 00:12:19 00:12:19 LES PTITS CULS 11,056 05:26
91 269 SUEUR Lise BRASSEUR Louis 00:35:56 MIXTES 16 00:12:26 00:10:21 LES BRASSEUR'S 11,020 05:27
92 281 COINON Alexandre DECROOCQ Marie 00:36:12 MIXTES 17 00:12:42 00:10:37 LES BACHIBOUZOUKS 10,939 05:29
93 256 LOBEZ Baptiste 0 0 00:36:31 MASCULINS 57 00:13:01 00:13:01 CH'TI BADDOW 10,844 05:32
94 246 WASIAK Richard GREMONT Anne 00:36:32 MIXTES 18 00:13:02 00:10:57 JULBO 2 10,839 05:32
95 248 ORY Nicolas COQUART Jérémy 00:36:55 MASCULINS 58 00:13:25 00:13:25 THE FOREST BOLT 10,727 05:36
96 211 SUEUR Louis SCABAILLIE François 00:37:16 MASCULINS 59 00:13:46 00:13:46 LES INCONNUS 10,626 05:39
97 227 DELCLOQUE Philippe CANEL Benoit 00:37:53 MASCULINS 60 00:14:23 00:14:23 LES TOURISTES 10,453 05:44
98 94 BAHEUX Jackie BAHEUX Florian 00:38:10 MASCULINS 61 00:14:40 00:14:40 LES LONGUEVILLOIS 10,376 05:47
99 216 BERNARD Quentin PIQUET Maxime 00:38:26 MASCULINS 62 00:14:56 00:14:56 LES CASCADEURS 10,304 05:49
100 215 RYCKEBUSCH Stéphane RYCKEBUSCH Marie 00:38:46 MIXTES 19 00:15:16 00:13:11 LA ZOUZOU TEAM 10,215 05:52
101 292 SAUVAGE Florian CLERCQ Victor 00:39:06 JEUNES 2 00:15:36 00:11:40 V'LA ENFIN LES RAIDES DINGUES 10,128 05:55
102 265 IMBERT Stéphanie DAJON Rachel 00:39:44 FEMININES 5 00:16:14 00:06:59 LES MALOUINES 9,966 06:01
103 215 RYCKEBUSCH Stéphane RYCKEBUSCH Marie 00:38:46 MIXTES 20 00:15:16 00:13:11 LA ZOUZOU TEAM 10,215 05:52
104 292 SAUVAGE Florian CLERCQ Victor 00:39:06 JEUNES 3 00:15:36 00:11:40 V'LA ENFIN LES RAIDES DINGUES 10,128 05:55